x

Destruction Island, Wa (desw1) Weather Station

5:00pm - Wed 4th Mar 2015 All times are PST. -8 hours from GMT.

  • Wind
    8mph, 9mph gusts
  • 空気 Temp 48°f
  • Sea Pressure 1025.6mb
  • Destruction Island, Wa
  • Destruction Island, Wa

More Historic Weather Station data

Upgrade to MSW Pro to gain access to the past 30 days of data for over 8000 Wavebouys and Weather Stations around the globe.

Join Pro

Comparision Forecast

View Surf forecast
   
Wed 03/04 5:00pm 8 9 mph 1025.6mb 48f
4:00pm 8 10 mph 1025.9mb 49f
3:00pm 7 8 mph 1026mb 49f
2:00pm 7 8 mph 1026mb 49f
1:00pm 5 7 mph 1026.1mb 49f
12:00pm 5 6 mph 1026.4mb 48f
11:00am  -  2 mph 1026.4mb 50f
10:00am 1 2 mph 1026.5mb 48f
9:00am 5 7 mph 1026.1mb 44f
8:00am 9 10 mph 1025.6mb 42f
7:00am 11
mph
1025.3mb 40f
6:00am 11 13 mph 1025.2mb 40f
5:00am 10 13 mph 1025mb 40f
4:00am 9 10 mph 1024.8mb 40f
3:00am 7 8 mph 1024.9mb 41f
2:00am 8 9 mph 1025mb 41f
1:00am 8
mph
1024.6mb 42f
12:00am 8
mph
1024.2mb 42f
Tue 03/03 11:00pm 9
mph
1024.1mb 43f
10:00pm 8 9 mph 1024mb 43f
9:00pm 7 8 mph 1023.8mb 46f
8:00pm 8 10 mph 1023.5mb 48f
7:00pm 10 11 mph 1023.4mb 47f
6:00pm 8 9 mph 1023mb 47f
5:00pm 8 9 mph 1023.2mb 48f
4:00pm 7 9 mph 1023.4mb 49f
3:00pm 8 9 mph 1023.5mb 49f
2:00pm 7 8 mph 1023.7mb 50f
1:00pm 3 5 mph 1024.1mb 50f
12:00pm 3 5 mph 1024.3mb 50f
11:00am 2 3 mph 1024.3mb 49f
10:00am 2 3 mph 1024.4mb 49f
9:00am 5 6 mph 1024.2mb 46f
8:00am 8 9 mph 1023.5mb 44f
7:00am 6
mph
1023mb 41f
6:00am 9
mph
1022.8mb 40f
5:00am 10 11 mph 1022.7mb 40f
4:00am 13
mph
1022.5mb 40f
3:00am 10 11 mph 1022.2mb 40f
2:00am 10 11 mph 1022mb 42f
1:00am 5 7 mph 1021.4mb 43f
12:00am 9
mph
1021.1mb 43f
Mon 03/02 11:00pm 8 9 mph 1020.6mb 43f
10:00pm 8 9 mph 1020.2mb 46f
9:00pm 8 10 mph 1020mb 47f
8:00pm 21 22 mph 1019.2mb 48f
7:00pm 22 24 mph 1018.7mb 48f
6:00pm 26 28 mph 1018mb 49f
5:00pm 31 33 mph 1017.3mb 48f
4:00pm 28 31 mph 1017mb 50f
3:00pm 33 37 mph 1016.9mb 49f
2:00pm 32 36 mph 1016.8mb 49f
1:00pm 16 18 mph 1017mb 52f
12:00pm 7 9 mph 1017.5mb 50f
11:00am 7 8 mph 1017.6mb 46f
10:00am 9 10 mph 1017.5mb 44f
9:00am 11 14 mph 1017.2mb 43f
8:00am 11 13 mph 1017.4mb 40f
7:00am 10 11 mph 1016.5mb 40f
6:00am 13 15 mph 1016.3mb 40f
5:00am 9
mph
1016.1mb 39f
4:00am 8 9 mph 1015.7mb 39f
3:00am 10
mph
1015.3mb 40f
2:00am 10 13 mph 1015.2mb 41f
1:00am 16 18 mph 1015.1mb 42f
12:00am 14 16 mph 1015mb 42f
Sun 03/01 11:00pm 10 11 mph 1015.5mb 43f
10:00pm 10 13 mph 1015.8mb 44f
9:00pm 10 11 mph 1015.9mb 44f
8:00pm 10 13 mph 1016.3mb 44f
7:00pm 5 6 mph 1016.6mb 44f
6:00pm 13 16 mph 1017mb 45f
5:00pm 7 8 mph 1017.6mb 47f
4:00pm 2 3 mph 1018.4mb 47f
3:00pm 3
mph
1019.1mb 48f
2:00pm 2 3 mph 1019.9mb 48f
1:00pm 5 6 mph 1021mb 47f
12:00pm 3 5 mph 1021.9mb 47f
11:00am 8 9 mph 1022.4mb 46f
10:00am 8
mph
1022.8mb 46f
9:00am 1 2 mph 1023mb 46f
8:00am 5 6 mph 1023.1mb 43f
7:00am 3 5 mph 1023.3mb 41f
6:00am 6
mph
1023.2mb 42f
5:00am 7 8 mph 1023.4mb 42f
4:00am 13 14 mph 1023.4mb 41f
3:00am 8
mph
1023.9mb 42f